Forside
METAR-TAF:

METAR-TAF

Lufthavne :

Trollhättan-Vänersborg, Sverige

Breddekreds: 58-19N, længdekreds: 012-21E, højde: 41 m

Aktuelle vejr

Denne rapport blev lavet for 12 minutter siden, kl. 02:50 UTC
Vind 4 kt fra nordnordøst
Temperatur 9°C
Fugtighed 100%
Tryk 1021 hPa
Sigt 10 km eller mere

METAR: ESGT 250250Z AUTO 02004KT 9999 FEW034/// OVC044/// 09/09 Q1021

Tid: 05:02 (03:02 UTC)


TAF: fraværende

Vejrobservationer og prognoser fra mere end 4000 lufthavne (METAR og TAF).

De gule og røde prikker repræsenterer de meteorologiske stationer.

Flyt musen over at se navnet på stationen.

Så klik over at se vejr observationer og prognoser.

At skifte det kort: Klik på de grønne knapper med et sort kors for at zoome ind; på den grønne knap med en bindestreg for at zoome ud; eller på de grønne pile for tilstødende kort.


METAR-TAF: